createdAt,value
2018-12-07T00:00:21.860Z,12.45
2018-12-07T00:01:21.873Z,12.40
2018-12-07T00:02:21.856Z,12.35
2018-12-07T00:03:21.877Z,12.35
2018-12-07T00:04:21.852Z,12.39
2018-12-07T00:05:21.870Z,12.39
2018-12-07T00:06:21.852Z,12.43
2018-12-07T00:07:22.067Z,12.42
2018-12-07T00:08:21.859Z,12.37
2018-12-07T00:09:21.859Z,12.45
2018-12-07T00:10:21.860Z,12.39
2018-12-07T00:11:21.850Z,12.32
2018-12-07T00:12:21.843Z,12.35
2018-12-07T00:13:21.856Z,12.42
2018-12-07T00:14:21.860Z,12.36
2018-12-07T00:15:22.111Z,12.37
2018-12-07T00:16:21.843Z,12.39
2018-12-07T00:17:21.846Z,12.42
2018-12-07T00:18:21.848Z,12.43
2018-12-07T00:19:22.055Z,12.36
2018-12-07T00:20:21.834Z,12.39
2018-12-07T00:21:22.051Z,12.42
2018-12-07T00:22:21.843Z,12.36
2018-12-07T00:23:21.832Z,12.36
2018-12-07T00:24:21.832Z,12.36
2018-12-07T00:25:21.832Z,12.28
2018-12-07T00:26:21.839Z,12.25
2018-12-07T00:27:21.837Z,12.35
2018-12-07T00:28:22.028Z,12.35
2018-12-07T00:29:21.818Z,12.35
2018-12-07T00:30:21.825Z,12.29
2018-12-07T00:31:21.832Z,12.31
2018-12-07T00:32:21.838Z,12.39
2018-12-07T00:33:22.034Z,12.40
2018-12-07T00:34:21.830Z,12.39
2018-12-07T00:35:21.825Z,12.43
2018-12-07T00:36:21.815Z,12.40
2018-12-07T00:37:21.808Z,12.37
2018-12-07T00:38:21.817Z,12.42
2018-12-07T00:39:21.833Z,12.39
2018-12-07T00:40:21.830Z,12.40
2018-12-07T00:41:21.816Z,12.45
2018-12-07T00:42:21.809Z,12.42
2018-12-07T00:43:21.803Z,12.43
2018-12-07T00:44:21.827Z,12.43
2018-12-07T00:45:21.804Z,12.40
2018-12-07T00:46:22.029Z,12.37
2018-12-07T00:47:21.825Z,12.46
2018-12-07T00:48:21.800Z,12.40
2018-12-07T00:49:21.803Z,12.49
2018-12-07T00:50:21.797Z,12.39
2018-12-07T00:51:21.806Z,12.31
2018-12-07T00:52:21.805Z,12.42
2018-12-07T00:53:21.803Z,12.36
2018-12-07T00:54:21.999Z,12.40
2018-12-07T00:55:21.796Z,12.37
2018-12-07T00:56:21.786Z,12.42
2018-12-07T00:57:21.984Z,12.35
2018-12-07T00:58:21.793Z,12.49
2018-12-07T00:59:21.793Z,12.57
2018-12-07T01:00:21.779Z,12.37
2018-12-07T01:01:21.779Z,12.37
2018-12-07T01:02:21.786Z,12.49
2018-12-07T01:03:22.007Z,12.37
2018-12-07T01:04:21.777Z,12.49
2018-12-07T01:05:21.776Z,12.36
2018-12-07T01:06:21.801Z,12.54
2018-12-07T01:07:21.778Z,12.50
2018-12-07T01:08:21.781Z,12.47
2018-12-07T01:09:21.789Z,12.50
2018-12-07T01:10:21.988Z,12.53
2018-12-07T01:11:21.770Z,12.43
2018-12-07T01:12:21.779Z,12.53
2018-12-07T01:13:21.766Z,12.47
2018-12-07T01:14:21.780Z,12.39
2018-12-07T01:15:21.774Z,12.42
2018-12-07T01:16:21.759Z,12.42
2018-12-07T01:17:21.768Z,12.39
2018-12-07T01:18:21.776Z,12.35
2018-12-07T01:19:21.968Z,12.40
2018-12-07T01:20:21.776Z,12.40
2018-12-07T01:21:21.777Z,12.29
2018-12-07T01:22:21.984Z,12.31
2018-12-07T01:23:21.772Z,12.27
2018-12-07T01:24:21.776Z,12.25
2018-12-07T01:25:21.973Z,12.35
2018-12-07T01:26:21.767Z,12.28
2018-12-07T01:27:21.963Z,12.28
2018-12-07T01:28:21.754Z,12.27
2018-12-07T01:29:21.742Z,12.22
2018-12-07T01:30:21.744Z,12.27
2018-12-07T01:31:21.764Z,12.17
2018-12-07T01:32:21.947Z,12.21
2018-12-07T01:33:21.758Z,12.17
2018-12-07T01:34:21.762Z,12.13
2018-12-07T01:35:21.755Z,12.21
2018-12-07T01:36:21.736Z,12.07
2018-12-07T01:37:21.739Z,12.20
2018-12-07T01:38:21.739Z,12.13
2018-12-07T01:39:21.742Z,12.06
2018-12-07T01:40:21.748Z,12.17
2018-12-07T01:41:21.731Z,12.12
2018-12-07T01:42:21.730Z,12.13
2018-12-07T01:43:21.936Z,12.17
2018-12-07T01:44:21.727Z,12.07
2018-12-07T01:45:21.726Z,12.09
2018-12-07T01:46:21.742Z,12.00
2018-12-07T01:47:21.737Z,11.97
2018-12-07T01:48:21.724Z,11.99
2018-12-07T01:49:21.729Z,12.06
2018-12-07T01:50:21.938Z,11.97
2018-12-07T01:51:21.722Z,11.97
2018-12-07T01:52:21.749Z,11.91
2018-12-07T01:53:21.736Z,11.86
2018-12-07T01:54:21.939Z,11.86
2018-12-07T01:55:21.748Z,11.86
2018-12-07T01:56:21.723Z,11.87
2018-12-07T01:57:21.727Z,11.87
2018-12-07T01:58:21.710Z,11.87
2018-12-07T01:59:21.720Z,11.87
2018-12-07T02:00:21.711Z,11.90
2018-12-07T02:01:21.711Z,11.97
2018-12-07T02:02:21.703Z,11.94
2018-12-07T02:03:21.908Z,11.91
2018-12-07T02:04:21.736Z,11.90
2018-12-07T02:05:21.717Z,11.86
2018-12-07T02:06:21.722Z,11.84
2018-12-07T02:07:21.906Z,11.83
2018-12-07T02:08:21.697Z,11.86
2018-12-07T02:09:21.700Z,11.77
2018-12-07T02:10:21.917Z,11.88
2018-12-07T02:11:21.706Z,11.75
2018-12-07T02:12:21.709Z,11.80
2018-12-07T02:13:21.694Z,11.73
2018-12-07T02:14:21.700Z,11.77
2018-12-07T02:15:21.696Z,11.81
2018-12-07T02:16:21.899Z,11.86
2018-12-07T02:17:21.892Z,11.83
2018-12-07T02:18:21.687Z,11.77
2018-12-07T02:19:21.896Z,11.77
2018-12-07T02:20:21.694Z,11.72
2018-12-07T02:21:21.690Z,11.69
2018-12-07T02:22:21.680Z,11.65
2018-12-07T02:23:21.686Z,11.70
2018-12-07T02:24:21.678Z,11.72
2018-12-07T02:25:21.677Z,11.70
2018-12-07T02:26:21.697Z,11.68
2018-12-07T02:27:21.689Z,11.65
2018-12-07T02:28:21.893Z,11.70
2018-12-07T02:29:21.671Z,11.68
2018-12-07T02:30:21.699Z,11.69
2018-12-07T02:31:21.874Z,11.73
2018-12-07T02:32:21.672Z,11.66
2018-12-07T02:33:21.670Z,11.68
2018-12-07T02:34:21.675Z,11.68
2018-12-07T02:35:21.667Z,11.69
2018-12-07T02:36:21.871Z,11.69
2018-12-07T02:37:21.667Z,11.62
2018-12-07T02:38:21.678Z,11.69
2018-12-07T02:39:21.677Z,11.66
2018-12-07T02:40:21.665Z,11.69
2018-12-07T02:41:21.663Z,11.72
2018-12-07T02:42:21.670Z,11.62
2018-12-07T02:43:21.658Z,11.63
2018-12-07T02:44:21.961Z,11.70
2018-12-07T02:45:21.655Z,11.59
2018-12-07T02:46:21.954Z,11.59
2018-12-07T02:47:21.856Z,11.68
2018-12-07T02:48:21.650Z,11.70
2018-12-07T02:49:21.673Z,11.66
2018-12-07T02:50:21.668Z,11.70
2018-12-07T02:51:21.856Z,11.57
2018-12-07T02:52:21.644Z,11.66
2018-12-07T02:53:21.917Z,11.57
2018-12-07T02:54:21.673Z,11.72
2018-12-07T02:55:21.678Z,11.60
2018-12-07T02:56:21.850Z,11.72
2018-12-07T02:57:21.845Z,11.69
2018-12-07T02:58:21.649Z,11.63
2018-12-07T02:59:21.843Z,11.65
2018-12-07T03:00:21.845Z,11.70
2018-12-07T03:01:21.845Z,11.68
2018-12-07T03:02:21.655Z,11.60
2018-12-07T03:03:21.643Z,11.68
2018-12-07T03:04:21.634Z,11.70
2018-12-07T03:05:21.648Z,11.69
2018-12-07T03:06:21.633Z,11.69
2018-12-07T03:07:21.634Z,11.69
2018-12-07T03:08:21.624Z,11.66
2018-12-07T03:09:21.621Z,11.65
2018-12-07T03:10:21.645Z,11.69
2018-12-07T03:11:21.618Z,11.69
2018-12-07T03:12:21.623Z,11.68
2018-12-07T03:13:21.642Z,11.68
2018-12-07T03:14:21.631Z,11.70
2018-12-07T03:15:21.614Z,11.69
2018-12-07T03:16:21.613Z,11.69
2018-12-07T03:17:21.624Z,11.63
2018-12-07T03:18:21.825Z,11.70
2018-12-07T03:19:21.615Z,11.63
2018-12-07T03:20:21.824Z,11.70
2018-12-07T03:21:21.624Z,11.69
2018-12-07T03:22:21.607Z,11.63
2018-12-07T03:23:21.602Z,11.72
2018-12-07T03:24:21.600Z,11.69
2018-12-07T03:25:21.606Z,11.72
2018-12-07T03:26:21.819Z,11.66
2018-12-07T03:27:21.619Z,11.70
2018-12-07T03:28:21.611Z,11.68
2018-12-07T03:29:21.793Z,11.70
2018-12-07T03:30:21.620Z,11.72
2018-12-07T03:31:21.597Z,11.73
2018-12-07T03:32:21.808Z,11.70
2018-12-07T03:33:21.596Z,11.69
2018-12-07T03:34:21.592Z,11.69
2018-12-07T03:35:21.610Z,11.68
2018-12-07T03:36:21.829Z,11.69
2018-12-07T03:37:21.595Z,11.63
2018-12-07T03:38:21.585Z,11.69
2018-12-07T03:39:21.588Z,11.69
2018-12-07T03:40:21.581Z,11.73
2018-12-07T03:41:21.578Z,11.69
2018-12-07T03:42:21.588Z,11.73
2018-12-07T03:43:21.602Z,11.70
2018-12-07T03:44:21.575Z,11.70
2018-12-07T03:45:21.606Z,11.68
2018-12-07T03:46:21.589Z,11.68
2018-12-07T03:47:21.571Z,11.70
2018-12-07T03:48:21.565Z,11.75
2018-12-07T03:49:21.590Z,11.77
2018-12-07T03:50:21.590Z,11.80
2018-12-07T03:51:21.576Z,11.75
2018-12-07T03:52:21.577Z,11.75
2018-12-07T03:53:21.574Z,11.81
2018-12-07T03:54:21.578Z,11.70
2018-12-07T03:55:21.608Z,11.78
2018-12-07T03:56:21.574Z,11.80
2018-12-07T03:57:21.756Z,11.66
2018-12-07T03:58:21.565Z,11.83
2018-12-07T03:59:21.761Z,11.81
2018-12-07T04:00:21.575Z,11.78
2018-12-07T04:01:21.620Z,11.73
2018-12-07T04:02:21.550Z,11.68
2018-12-07T04:03:21.548Z,11.73
2018-12-07T04:04:21.555Z,11.78
2018-12-07T04:05:21.558Z,11.78
2018-12-07T04:06:21.544Z,11.63
2018-12-07T04:07:21.546Z,11.68
2018-12-07T04:08:21.551Z,11.70
2018-12-07T04:09:21.550Z,11.70
2018-12-07T04:10:21.541Z,11.72
2018-12-07T04:11:21.541Z,11.68
2018-12-07T04:12:21.739Z,11.75
2018-12-07T04:13:21.555Z,11.68
2018-12-07T04:14:21.551Z,11.73
2018-12-07T04:15:21.547Z,11.70
2018-12-07T04:16:21.737Z,11.68
2018-12-07T04:17:21.752Z,11.70
2018-12-07T04:18:21.735Z,11.68
2018-12-07T04:19:21.552Z,11.72
2018-12-07T04:20:21.544Z,11.75
2018-12-07T04:21:21.541Z,11.73
2018-12-07T04:22:21.522Z,11.81
2018-12-07T04:23:21.537Z,11.83
2018-12-07T04:24:21.522Z,11.69
2018-12-07T04:25:21.521Z,11.78
2018-12-07T04:26:21.533Z,11.65
2018-12-07T04:27:21.547Z,11.70
2018-12-07T04:28:21.513Z,11.81
2018-12-07T04:29:21.526Z,11.77
2018-12-07T04:30:21.518Z,11.86
2018-12-07T04:31:21.512Z,11.80
2018-12-07T04:32:21.514Z,11.81
2018-12-07T04:33:21.719Z,11.77
2018-12-07T04:34:21.723Z,11.83
2018-12-07T04:35:21.505Z,11.83
2018-12-07T04:36:21.537Z,11.80
2018-12-07T04:37:21.505Z,11.88
2018-12-07T04:38:21.504Z,11.80
2018-12-07T04:39:21.508Z,11.83
2018-12-07T04:40:21.512Z,11.86
2018-12-07T04:41:21.517Z,11.86
2018-12-07T04:42:21.516Z,11.78
2018-12-07T04:43:21.498Z,11.80
2018-12-07T04:44:21.519Z,11.83
2018-12-07T04:45:21.499Z,11.88
2018-12-07T04:46:21.501Z,11.80
2018-12-07T04:47:21.518Z,11.83
2018-12-07T04:48:21.489Z,11.86
2018-12-07T04:49:21.706Z,11.84
2018-12-07T04:50:21.498Z,11.78
2018-12-07T04:51:21.497Z,11.86
2018-12-07T04:52:21.691Z,11.88
2018-12-07T04:53:21.485Z,11.84
2018-12-07T04:54:21.502Z,11.86
2018-12-07T04:55:21.684Z,11.88
2018-12-07T04:56:21.486Z,11.86
2018-12-07T04:57:21.492Z,11.83
2018-12-07T04:58:21.494Z,11.80
2018-12-07T04:59:21.474Z,11.80
2018-12-07T05:00:21.483Z,11.81
2018-12-07T05:01:21.485Z,11.78
2018-12-07T05:02:21.487Z,11.77
2018-12-07T05:03:21.477Z,11.80
2018-12-07T05:04:21.473Z,11.86
2018-12-07T05:05:21.492Z,11.84
2018-12-07T05:06:21.477Z,11.88
2018-12-07T05:07:21.520Z,11.81
2018-12-07T05:08:21.469Z,11.80
2018-12-07T05:09:21.466Z,11.77
2018-12-07T05:10:21.462Z,11.75
2018-12-07T05:11:21.676Z,11.81
2018-12-07T05:12:21.481Z,11.72
2018-12-07T05:13:21.454Z,11.84
2018-12-07T05:14:21.474Z,11.75
2018-12-07T05:15:21.474Z,11.78
2018-12-07T05:16:21.497Z,11.75
2018-12-07T05:17:21.489Z,11.72
2018-12-07T05:18:21.459Z,11.66
2018-12-07T05:19:21.448Z,11.69
2018-12-07T05:20:21.458Z,11.73
2018-12-07T05:21:21.454Z,11.65
2018-12-07T05:22:21.457Z,11.69
2018-12-07T05:23:21.461Z,11.75
2018-12-07T05:24:21.646Z,11.72
2018-12-07T05:25:21.442Z,11.68
2018-12-07T05:26:21.451Z,11.65
2018-12-07T05:27:21.439Z,11.73
2018-12-07T05:28:21.441Z,11.68
2018-12-07T05:29:21.434Z,11.69
2018-12-07T05:30:21.437Z,11.65
2018-12-07T05:31:21.439Z,11.68
2018-12-07T05:32:21.436Z,11.65
2018-12-07T05:33:21.433Z,11.62
2018-12-07T05:34:21.446Z,11.57
2018-12-07T05:35:21.426Z,11.65
2018-12-07T05:36:21.438Z,11.59
2018-12-07T05:37:21.423Z,11.57
2018-12-07T05:38:21.425Z,11.60
2018-12-07T05:39:21.428Z,11.55
2018-12-07T05:40:21.425Z,11.54
2018-12-07T05:41:21.420Z,11.52
2018-12-07T05:42:21.420Z,11.62
2018-12-07T05:43:21.419Z,11.62
2018-12-07T05:44:21.626Z,11.59
2018-12-07T05:45:21.432Z,11.52
2018-12-07T05:46:21.416Z,11.60
2018-12-07T05:47:21.408Z,11.57
2018-12-07T05:48:23.767Z,11.51
2018-12-07T05:49:21.403Z,11.57
2018-12-07T05:50:21.438Z,11.47
2018-12-07T05:51:21.417Z,11.48
2018-12-07T05:52:21.426Z,11.55
2018-12-07T05:53:21.417Z,11.44
2018-12-07T05:54:21.419Z,11.51
2018-12-07T05:55:21.606Z,11.51
2018-12-07T05:56:21.415Z,11.45
2018-12-07T05:57:21.412Z,11.48
2018-12-07T05:58:21.401Z,11.50
2018-12-07T05:59:21.402Z,11.43
2018-12-07T06:00:21.402Z,11.44
2018-12-07T06:01:21.396Z,11.41
2018-12-07T06:02:21.394Z,11.43
2018-12-07T06:03:21.399Z,11.41
2018-12-07T06:04:21.398Z,11.54
2018-12-07T06:05:21.476Z,11.47
2018-12-07T06:06:21.381Z,11.43
2018-12-07T06:07:21.408Z,11.47
2018-12-07T06:08:21.378Z,11.43
2018-12-07T06:09:21.381Z,11.44
2018-12-07T06:10:21.374Z,11.45
2018-12-07T06:11:21.389Z,11.37
2018-12-07T06:12:21.426Z,11.43
2018-12-07T06:13:21.384Z,11.43
2018-12-07T06:14:21.367Z,11.43
2018-12-07T06:15:21.368Z,11.41
2018-12-07T06:16:21.377Z,11.47
2018-12-07T06:17:21.381Z,11.44
2018-12-07T06:18:21.363Z,11.36
2018-12-07T06:19:21.562Z,11.36
2018-12-07T06:20:21.363Z,11.41
2018-12-07T06:21:21.379Z,11.44
2018-12-07T06:22:21.557Z,11.35
2018-12-07T06:23:21.382Z,11.41
2018-12-07T06:24:21.368Z,11.36
2018-12-07T06:25:21.420Z,11.40
2018-12-07T06:26:21.575Z,11.36
2018-12-07T06:27:21.358Z,11.35
2018-12-07T06:28:21.345Z,11.35
2018-12-07T06:29:21.551Z,11.40
2018-12-07T06:30:21.544Z,11.37
2018-12-07T06:31:21.343Z,11.32
2018-12-07T06:32:21.348Z,11.35
2018-12-07T06:33:21.352Z,11.35
2018-12-07T06:34:21.344Z,11.40
2018-12-07T06:35:21.339Z,11.36
2018-12-07T06:36:21.338Z,11.35
2018-12-07T06:37:21.329Z,11.37
2018-12-07T06:38:21.534Z,11.32
2018-12-07T06:39:21.329Z,11.36
2018-12-07T06:40:21.328Z,11.36
2018-12-07T06:41:21.321Z,11.30
2018-12-07T06:42:21.333Z,11.37
2018-12-07T06:43:21.324Z,11.32
2018-12-07T06:44:21.323Z,11.32
2018-12-07T06:45:21.323Z,11.32
2018-12-07T06:46:21.322Z,11.30
2018-12-07T06:47:21.315Z,11.35
2018-12-07T06:48:21.312Z,11.33
2018-12-07T06:49:21.518Z,11.40
2018-12-07T06:50:21.316Z,11.35
2018-12-07T06:51:21.325Z,11.32
2018-12-07T06:52:21.309Z,11.29
2018-12-07T06:53:21.304Z,11.33
2018-12-07T06:54:21.300Z,11.36
2018-12-07T06:55:21.300Z,11.32
2018-12-07T06:56:21.499Z,11.32
2018-12-07T06:57:21.292Z,11.35
2018-12-07T06:58:21.295Z,11.33
2018-12-07T06:59:21.293Z,11.32
2018-12-07T07:00:21.288Z,11.35
2018-12-07T07:01:21.298Z,11.30
2018-12-07T07:02:21.288Z,11.27
2018-12-07T07:03:21.491Z,11.27
2018-12-07T07:04:21.284Z,11.32
2018-12-07T07:05:21.288Z,11.30
2018-12-07T07:06:21.289Z,11.30
2018-12-07T07:07:21.288Z,11.32
2018-12-07T07:08:21.296Z,11.30
2018-12-07T07:09:21.288Z,11.27
2018-12-07T07:10:21.278Z,11.35
2018-12-07T07:11:21.274Z,11.33
2018-12-07T07:12:21.491Z,11.30
2018-12-07T07:13:21.478Z,11.30
2018-12-07T07:14:21.275Z,11.32
2018-12-07T07:15:21.286Z,11.30
2018-12-07T07:16:23.283Z,11.32
2018-12-07T07:17:21.470Z,11.32
2018-12-07T07:18:21.509Z,11.32
2018-12-07T07:19:21.479Z,11.22
2018-12-07T07:20:21.462Z,11.32
2018-12-07T07:21:21.252Z,11.26
2018-12-07T07:22:21.263Z,11.37
2018-12-07T07:23:21.253Z,11.22
2018-12-07T07:24:21.266Z,11.26
2018-12-07T07:25:21.247Z,11.33
2018-12-07T07:26:21.254Z,11.33
2018-12-07T07:27:21.264Z,11.33
2018-12-07T07:28:21.238Z,11.27
2018-12-07T07:29:21.270Z,11.27
2018-12-07T07:30:21.247Z,11.25
2018-12-07T07:31:21.238Z,11.35
2018-12-07T07:32:21.231Z,11.36
2018-12-07T07:33:21.262Z,11.27
2018-12-07T07:34:21.259Z,11.33
2018-12-07T07:35:21.238Z,11.27
2018-12-07T07:36:21.226Z,11.29
2018-12-07T07:37:21.229Z,11.32
2018-12-07T07:38:21.222Z,11.29
2018-12-07T07:39:21.247Z,11.26
2018-12-07T07:40:21.431Z,11.27
2018-12-07T07:41:21.430Z,11.27
2018-12-07T07:42:21.229Z,11.26
2018-12-07T07:43:21.241Z,11.35
2018-12-07T07:44:21.208Z,11.35
2018-12-07T07:45:21.241Z,11.35
2018-12-07T07:46:21.231Z,11.25
2018-12-07T07:47:21.219Z,11.30
2018-12-07T07:48:21.218Z,11.26
2018-12-07T07:49:21.207Z,11.33
2018-12-07T07:50:21.197Z,11.30
2018-12-07T07:51:21.197Z,11.33
2018-12-07T07:52:21.202Z,11.35
2018-12-07T07:53:21.399Z,11.27
2018-12-07T07:54:21.259Z,11.32
2018-12-07T07:55:21.202Z,11.35
2018-12-07T07:56:21.405Z,11.30
2018-12-07T07:57:21.212Z,11.33
2018-12-07T07:58:21.202Z,11.26
2018-12-07T07:59:21.197Z,11.33
2018-12-07T08:00:21.185Z,11.36
2018-12-07T08:01:21.179Z,11.27
2018-12-07T08:02:21.199Z,11.32
2018-12-07T08:03:21.181Z,11.27
2018-12-07T08:04:21.187Z,11.29
2018-12-07T08:05:21.169Z,11.29
2018-12-07T08:06:21.232Z,11.30
2018-12-07T08:07:21.174Z,11.32
2018-12-07T08:08:21.181Z,11.30
2018-12-07T08:09:21.178Z,11.33
2018-12-07T08:10:21.164Z,11.30
2018-12-07T08:11:21.166Z,11.32
2018-12-07T08:12:21.197Z,11.30
2018-12-07T08:13:21.376Z,11.30
2018-12-07T08:14:21.167Z,11.29
2018-12-07T08:15:21.183Z,11.32
2018-12-07T08:16:21.369Z,11.32
2018-12-07T08:17:21.164Z,11.35
2018-12-07T08:18:21.181Z,11.33
2018-12-07T08:19:21.374Z,11.35
2018-12-07T08:20:21.161Z,11.36
2018-12-07T08:21:21.348Z,11.32
2018-12-07T08:22:21.168Z,11.26
2018-12-07T08:23:21.341Z,11.32
2018-12-07T08:24:21.170Z,11.29
2018-12-07T08:25:21.159Z,11.35
2018-12-07T08:26:21.155Z,11.29
2018-12-07T08:27:21.145Z,11.26
2018-12-07T08:28:22.658Z,11.32
2018-12-07T08:29:21.133Z,11.36
2018-12-07T08:30:21.350Z,11.32
2018-12-07T08:31:21.132Z,11.30
2018-12-07T08:32:21.331Z,11.33
2018-12-07T08:33:21.139Z,11.32
2018-12-07T08:34:21.322Z,11.30
2018-12-07T08:35:21.133Z,11.36
2018-12-07T08:36:21.141Z,11.32
2018-12-07T08:37:21.131Z,11.35
2018-12-07T08:38:21.128Z,11.40
2018-12-07T08:39:21.114Z,11.37
2018-12-07T08:40:21.119Z,11.33
2018-12-07T08:41:21.116Z,11.37
2018-12-07T08:42:21.115Z,11.37
2018-12-07T08:43:21.112Z,11.41
2018-12-07T08:44:21.112Z,11.36
2018-12-07T08:45:21.107Z,11.36
2018-12-07T08:46:21.113Z,11.35
2018-12-07T08:47:21.097Z,11.40
2018-12-07T08:48:21.106Z,11.40
2018-12-07T08:49:21.103Z,11.40
2018-12-07T08:50:21.094Z,11.36
2018-12-07T08:51:21.097Z,11.36
2018-12-07T08:52:21.095Z,11.32
2018-12-07T08:53:21.099Z,11.41
2018-12-07T08:54:21.125Z,11.36
2018-12-07T08:55:21.093Z,11.41
2018-12-07T08:56:21.087Z,11.33
2018-12-07T08:57:21.096Z,11.36
2018-12-07T08:58:21.283Z,11.43
2018-12-07T08:59:21.081Z,11.43
2018-12-07T09:00:21.076Z,11.43
2018-12-07T09:01:21.097Z,11.40
2018-12-07T09:02:21.074Z,11.44
2018-12-07T09:03:21.069Z,11.35
2018-12-07T09:04:21.075Z,11.41
2018-12-07T09:05:21.070Z,11.45
2018-12-07T09:06:21.068Z,11.45
2018-12-07T09:07:21.081Z,11.43
2018-12-07T09:08:21.068Z,11.35
2018-12-07T09:09:21.076Z,11.45
2018-12-07T09:10:21.276Z,11.44
2018-12-07T09:11:21.076Z,11.48
2018-12-07T09:12:21.263Z,11.41
2018-12-07T09:13:21.062Z,11.43
2018-12-07T09:14:21.059Z,11.45
2018-12-07T09:15:21.055Z,11.44
2018-12-07T09:16:21.280Z,11.48
2018-12-07T09:17:21.064Z,11.51
2018-12-07T09:18:21.050Z,11.41
2018-12-07T09:19:21.052Z,11.48
2018-12-07T09:20:21.060Z,11.44
2018-12-07T09:21:21.072Z,11.50
2018-12-07T09:22:21.054Z,11.47
2018-12-07T09:23:21.059Z,11.44
2018-12-07T09:24:21.069Z,11.44
2018-12-07T09:25:21.256Z,11.44
2018-12-07T09:26:21.037Z,11.48
2018-12-07T09:27:21.050Z,11.44
2018-12-07T09:28:21.049Z,11.50
2018-12-07T09:29:21.043Z,11.45
2018-12-07T09:30:21.040Z,11.50
2018-12-07T09:31:21.030Z,11.50
2018-12-07T09:32:21.232Z,11.48
2018-12-07T09:33:21.053Z,11.51
2018-12-07T09:34:21.039Z,11.43
2018-12-07T09:35:21.026Z,11.50
2018-12-07T09:36:21.022Z,11.44
2018-12-07T09:37:21.025Z,11.50
2018-12-07T09:38:21.026Z,11.50
2018-12-07T09:39:21.021Z,11.51
2018-12-07T09:40:21.040Z,11.52
2018-12-07T09:41:21.032Z,11.52
2018-12-07T09:42:21.048Z,11.55
2018-12-07T09:43:21.011Z,11.50
2018-12-07T09:44:21.007Z,11.52
2018-12-07T09:45:21.028Z,11.51
2018-12-07T09:46:21.006Z,11.59
2018-12-07T09:47:21.018Z,11.55
2018-12-07T09:48:21.007Z,11.52
2018-12-07T09:49:21.020Z,11.55
2018-12-07T09:50:21.005Z,11.51
2018-12-07T09:51:21.013Z,11.54
2018-12-07T09:52:20.999Z,11.54
2018-12-07T09:53:20.999Z,11.57
2018-12-07T09:54:21.009Z,11.54
2018-12-07T09:55:21.007Z,11.51
2018-12-07T09:56:20.991Z,11.51
2018-12-07T09:57:20.996Z,11.62
2018-12-07T09:58:20.995Z,11.54
2018-12-07T09:59:20.985Z,11.52
2018-12-07T10:00:20.985Z,11.51
2018-12-07T10:01:20.987Z,11.48
2018-12-07T10:02:20.983Z,11.54
2018-12-07T10:03:20.994Z,11.51
2018-12-07T10:04:21.006Z,11.65
2018-12-07T10:05:20.974Z,11.66
2018-12-07T10:06:20.986Z,11.63
2018-12-07T10:07:20.980Z,11.63
2018-12-07T10:08:20.972Z,11.63
2018-12-07T10:09:21.004Z,11.63
2018-12-07T10:10:20.969Z,11.63
2018-12-07T10:11:20.966Z,11.59
2018-12-07T10:12:20.971Z,11.60
2018-12-07T10:13:20.986Z,11.59
2018-12-07T10:14:20.984Z,11.65
2018-12-07T10:15:20.984Z,11.65
2018-12-07T10:16:20.984Z,11.68
2018-12-07T10:17:20.972Z,11.65
2018-12-07T10:18:20.976Z,11.62
2018-12-07T10:19:20.956Z,11.65
2018-12-07T10:20:20.977Z,11.60
2018-12-07T10:21:20.955Z,11.63
2018-12-07T10:22:20.954Z,11.68
2018-12-07T10:23:20.950Z,11.59
2018-12-07T10:24:20.965Z,11.60
2018-12-07T10:25:20.947Z,11.60
2018-12-07T10:26:20.961Z,11.57
2018-12-07T10:27:20.947Z,11.65
2018-12-07T10:28:20.964Z,11.52
2018-12-07T10:29:20.958Z,11.66
2018-12-07T10:30:20.961Z,11.59
2018-12-07T10:31:20.936Z,11.65
2018-12-07T10:32:20.950Z,11.57
2018-12-07T10:33:20.951Z,11.68
2018-12-07T10:34:20.944Z,11.60
2018-12-07T10:35:20.955Z,11.66
2018-12-07T10:36:20.960Z,11.65
2018-12-07T10:37:20.931Z,11.69
2018-12-07T10:38:20.946Z,11.73
2018-12-07T10:39:20.926Z,11.59
2018-12-07T10:40:20.982Z,11.66
2018-12-07T10:41:20.950Z,11.68
2018-12-07T10:42:20.936Z,11.65
2018-12-07T10:43:21.031Z,11.70
2018-12-07T10:44:20.920Z,11.66
2018-12-07T10:45:20.927Z,11.69
2018-12-07T10:46:21.123Z,11.66
2018-12-07T10:47:20.948Z,11.65
2018-12-07T10:48:20.947Z,11.68
2018-12-07T10:49:20.918Z,11.69
2018-12-07T10:50:20.913Z,11.69
2018-12-07T10:51:21.127Z,11.70
2018-12-07T10:52:20.917Z,11.69
2018-12-07T10:53:20.916Z,11.69
2018-12-07T10:54:20.906Z,11.72
2018-12-07T10:55:20.923Z,11.68
2018-12-07T10:56:20.903Z,11.63
2018-12-07T10:57:20.919Z,11.68
2018-12-07T10:58:20.899Z,11.73
2018-12-07T10:59:20.905Z,11.66
2018-12-07T11:00:23.072Z,11.69
2018-12-07T11:01:20.920Z,11.70
2018-12-07T11:02:20.916Z,11.70
2018-12-07T11:03:21.095Z,11.69
2018-12-07T11:04:20.895Z,11.70
2018-12-07T11:05:22.406Z,11.73
2018-12-07T11:06:20.889Z,11.75
2018-12-07T11:07:21.096Z,11.78
2018-12-07T11:08:20.891Z,11.81
2018-12-07T11:09:20.889Z,11.81
2018-12-07T11:10:20.901Z,11.78
2018-12-07T11:11:20.900Z,11.81
2018-12-07T11:12:20.884Z,11.81
2018-12-07T11:13:20.882Z,11.81
2018-12-07T11:14:20.879Z,11.78
2018-12-07T11:15:20.878Z,11.86
2018-12-07T11:16:20.884Z,11.84
2018-12-07T11:17:20.889Z,11.86
2018-12-07T11:18:20.878Z,11.87
2018-12-07T11:19:21.078Z,11.90
2018-12-07T11:20:20.881Z,11.91
2018-12-07T11:21:20.877Z,12.00
2018-12-07T11:22:20.884Z,11.87
2018-12-07T11:23:20.866Z,11.83
2018-12-07T11:24:20.882Z,11.88
2018-12-07T11:25:20.876Z,11.97
2018-12-07T11:26:20.882Z,11.88
2018-12-07T11:27:20.874Z,11.90
2018-12-07T11:28:20.859Z,11.86
2018-12-07T11:29:20.862Z,12.00
2018-12-07T11:30:20.872Z,11.99
2018-12-07T11:31:20.871Z,11.94
2018-12-07T11:32:20.879Z,11.97
2018-12-07T11:33:21.058Z,11.99
2018-12-07T11:34:20.858Z,11.86
2018-12-07T11:35:21.051Z,11.86
2018-12-07T11:36:20.850Z,11.97
2018-12-07T11:37:20.862Z,11.97
2018-12-07T11:38:20.846Z,11.95
2018-12-07T11:39:20.845Z,11.97
2018-12-07T11:40:20.847Z,12.00
2018-12-07T11:41:20.841Z,11.95
2018-12-07T11:42:21.046Z,11.99
2018-12-07T11:43:20.840Z,12.06
2018-12-07T11:44:21.056Z,11.99
2018-12-07T11:45:20.855Z,11.97
2018-12-07T11:46:20.874Z,12.00
2018-12-07T11:47:20.835Z,12.06
2018-12-07T11:48:21.041Z,12.04
2018-12-07T11:49:21.053Z,12.06
2018-12-07T11:50:20.839Z,12.09
2018-12-07T11:51:20.828Z,12.09
2018-12-07T11:52:20.839Z,12.02
2018-12-07T11:53:20.839Z,12.02
2018-12-07T11:54:20.841Z,12.09
2018-12-07T11:55:20.821Z,11.99
2018-12-07T11:56:20.824Z,12.07
2018-12-07T11:57:20.818Z,12.09
2018-12-07T11:58:20.822Z,12.18
2018-12-07T11:59:20.830Z,12.17
2018-12-07T12:00:20.834Z,12.04
2018-12-07T12:01:20.824Z,12.15
2018-12-07T12:02:26.266Z,12.07
2018-12-07T12:03:20.821Z,12.07
2018-12-07T12:04:21.020Z,12.18
2018-12-07T12:05:20.812Z,12.20
2018-12-07T12:06:20.816Z,12.20
2018-12-07T12:07:21.030Z,12.22
2018-12-07T12:08:20.818Z,12.28
2018-12-07T12:09:20.806Z,12.24
2018-12-07T12:10:20.812Z,12.31
2018-12-07T12:11:20.811Z,12.21
2018-12-07T12:12:21.012Z,12.24
2018-12-07T12:13:20.817Z,12.24
2018-12-07T12:14:20.806Z,12.20
2018-12-07T12:15:20.825Z,12.22
2018-12-07T12:16:20.820Z,12.27
2018-12-07T12:17:21.011Z,12.27
2018-12-07T12:18:20.801Z,12.22
2018-12-07T12:19:20.794Z,12.29
2018-12-07T12:20:20.787Z,12.25
2018-12-07T12:21:20.802Z,12.22
2018-12-07T12:22:20.806Z,12.27
2018-12-07T12:23:20.798Z,12.25
2018-12-07T12:24:20.793Z,12.27
2018-12-07T12:25:20.798Z,12.22
2018-12-07T12:26:20.778Z,12.29
2018-12-07T12:27:20.783Z,12.25
2018-12-07T12:28:20.795Z,12.27
2018-12-07T12:29:20.984Z,12.31
2018-12-07T12:30:20.801Z,12.27
2018-12-07T12:31:20.977Z,12.31
2018-12-07T12:32:20.798Z,12.22
2018-12-07T12:33:20.779Z,12.25
2018-12-07T12:34:20.769Z,12.18
2018-12-07T12:35:21.610Z,12.22
2018-12-07T12:36:20.791Z,12.28
2018-12-07T12:37:20.974Z,12.20
2018-12-07T12:38:20.776Z,12.21
2018-12-07T12:39:20.768Z,12.22
2018-12-07T12:40:20.781Z,12.25
2018-12-07T12:41:22.756Z,12.29
2018-12-07T12:42:20.758Z,12.24
2018-12-07T12:43:20.772Z,12.39
2018-12-07T12:44:20.754Z,12.43
2018-12-07T12:45:20.768Z,12.37
2018-12-07T12:46:20.819Z,12.50
2018-12-07T12:47:20.755Z,12.50
2018-12-07T12:48:20.763Z,12.49
2018-12-07T12:49:20.755Z,12.50
2018-12-07T12:50:20.760Z,12.55
2018-12-07T12:51:20.749Z,12.53
2018-12-07T12:52:20.955Z,12.35